sensor_id;sensor_type;location;lat;lon;timestamp;temperature;humidity
20158;DHT22;10239;56.820;24.416;2023-09-19T00:00:57;17.30;99.90
20158;DHT22;10239;56.820;24.416;2023-09-19T00:03:25;17.10;99.90
20158;DHT22;10239;56.820;24.416;2023-09-19T00:05:53;17.20;99.90
20158;DHT22;10239;56.820;24.416;2023-09-19T00:08:20;17.20;99.90
20158;DHT22;10239;56.820;24.416;2023-09-19T00:10:54;17.20;99.90
20158;DHT22;10239;56.820;24.416;2023-09-19T00:13:22;17.20;99.90
20158;DHT22;10239;56.820;24.416;2023-09-19T00:15:51;17.00;99.90
20158;DHT22;10239;56.820;24.416;2023-09-19T00:18:20;16.90;99.90
20158;DHT22;10239;56.820;24.416;2023-09-19T00:20:50;17.10;99.90
20158;DHT22;10239;56.820;24.416;2023-09-19T00:23:20;17.10;99.90
20158;DHT22;10239;56.820;24.416;2023-09-19T00:25:48;17.00;99.90
20158;DHT22;10239;56.820;24.416;2023-09-19T00:28:16;16.90;99.90
20158;DHT22;10239;56.820;24.416;2023-09-19T00:30:44;16.90;99.90
20158;DHT22;10239;56.820;24.416;2023-09-19T00:33:12;17.10;99.90
20158;DHT22;10239;56.820;24.416;2023-09-19T00:35:50;17.20;99.90
20158;DHT22;10239;56.820;24.416;2023-09-19T00:38:20;17.20;99.90
20158;DHT22;10239;56.820;24.416;2023-09-19T00:40:50;17.10;99.90
20158;DHT22;10239;56.820;24.416;2023-09-19T00:43:23;17.20;99.90
20158;DHT22;10239;56.820;24.416;2023-09-19T00:45:53;17.20;99.90
20158;DHT22;10239;56.820;24.416;2023-09-19T00:48:22;17.10;99.90
20158;DHT22;10239;56.820;24.416;2023-09-19T00:50:51;17.10;99.90
20158;DHT22;10239;56.820;24.416;2023-09-19T00:53:21;17.00;99.90
20158;DHT22;10239;56.820;24.416;2023-09-19T00:55:51;17.00;99.90
20158;DHT22;10239;56.820;24.416;2023-09-19T00:58:19;17.00;99.90
20158;DHT22;10239;56.820;24.416;2023-09-19T01:00:51;16.90;99.90
20158;DHT22;10239;56.820;24.416;2023-09-19T01:03:20;17.00;99.90
20158;DHT22;10239;56.820;24.416;2023-09-19T01:05:49;16.90;99.90
20158;DHT22;10239;56.820;24.416;2023-09-19T01:08:19;16.90;99.90
20158;DHT22;10239;56.820;24.416;2023-09-19T01:10:58;16.80;99.90
20158;DHT22;10239;56.820;24.416;2023-09-19T01:13:54;16.90;99.90
20158;DHT22;10239;56.820;24.416;2023-09-19T01:16:39;16.60;99.90
20158;DHT22;10239;56.820;24.416;2023-09-19T01:30:33;16.80;99.90
20158;DHT22;10239;56.820;24.416;2023-09-19T01:33:05;16.90;99.90
20158;DHT22;10239;56.820;24.416;2023-09-19T01:35:34;16.80;99.90
20158;DHT22;10239;56.820;24.416;2023-09-19T01:38:01;16.80;99.90
20158;DHT22;10239;56.820;24.416;2023-09-19T01:40:30;16.90;99.90
20158;DHT22;10239;56.820;24.416;2023-09-19T01:48:41;16.70;99.90
20158;DHT22;10239;56.820;24.416;2023-09-19T01:51:11;16.70;99.90
20158;DHT22;10239;56.820;24.416;2023-09-19T01:54:02;16.80;99.90
20158;DHT22;10239;56.820;24.416;2023-09-19T01:56:47;16.80;99.90
20158;DHT22;10239;56.820;24.416;2023-09-19T01:59:28;16.80;99.90
20158;DHT22;10239;56.820;24.416;2023-09-19T02:02:00;16.90;99.90
20158;DHT22;10239;56.820;24.416;2023-09-19T02:04:28;16.70;99.90
20158;DHT22;10239;56.820;24.416;2023-09-19T02:06:57;16.80;99.90
20158;DHT22;10239;56.820;24.416;2023-09-19T02:09:25;16.80;99.90
20158;DHT22;10239;56.820;24.416;2023-09-19T02:11:53;16.60;99.90
20158;DHT22;10239;56.820;24.416;2023-09-19T02:14:23;16.70;99.90
20158;DHT22;10239;56.820;24.416;2023-09-19T02:16:50;16.80;99.90
20158;DHT22;10239;56.820;24.416;2023-09-19T02:19:18;16.80;99.90
20158;DHT22;10239;56.820;24.416;2023-09-19T02:21:46;16.80;99.90
20158;DHT22;10239;56.820;24.416;2023-09-19T02:24:15;16.80;99.90
20158;DHT22;10239;56.820;24.416;2023-09-19T02:26:43;16.80;99.90
20158;DHT22;10239;56.820;24.416;2023-09-19T02:29:11;16.90;99.90
20158;DHT22;10239;56.820;24.416;2023-09-19T02:31:40;16.90;99.90
20158;DHT22;10239;56.820;24.416;2023-09-19T02:34:08;16.80;99.90
20158;DHT22;10239;56.820;24.416;2023-09-19T02:36:36;16.80;99.90
20158;DHT22;10239;56.820;24.416;2023-09-19T02:39:04;16.90;99.90
20158;DHT22;10239;56.820;24.416;2023-09-19T02:41:33;16.90;99.90
20158;DHT22;10239;56.820;24.416;2023-09-19T02:44:01;16.90;99.90
20158;DHT22;10239;56.820;24.416;2023-09-19T02:46:29;16.90;99.90
20158;DHT22;10239;56.820;24.416;2023-09-19T02:48:57;17.10;99.90
20158;DHT22;10239;56.820;24.416;2023-09-19T02:51:24;17.00;99.90
20158;DHT22;10239;56.820;24.416;2023-09-19T02:53:52;17.00;99.90
20158;DHT22;10239;56.820;24.416;2023-09-19T02:56:20;17.10;99.90
20158;DHT22;10239;56.820;24.416;2023-09-19T02:58:48;17.20;99.90
20158;DHT22;10239;56.820;24.416;2023-09-19T03:01:16;17.10;99.90
20158;DHT22;10239;56.820;24.416;2023-09-19T03:03:44;17.10;99.90
20158;DHT22;10239;56.820;24.416;2023-09-19T03:06:13;17.00;99.90
20158;DHT22;10239;56.820;24.416;2023-09-19T03:08:40;17.10;99.90
20158;DHT22;10239;56.820;24.416;2023-09-19T03:11:10;17.00;99.90
20158;DHT22;10239;56.820;24.416;2023-09-19T03:13:41;17.00;99.90
20158;DHT22;10239;56.820;24.416;2023-09-19T03:16:11;16.90;99.90
20158;DHT22;10239;56.820;24.416;2023-09-19T03:18:39;16.90;99.90
20158;DHT22;10239;56.820;24.416;2023-09-19T03:21:07;17.00;99.90
20158;DHT22;10239;56.820;24.416;2023-09-19T03:23:34;17.00;99.90
20158;DHT22;10239;56.820;24.416;2023-09-19T03:26:02;17.00;99.90
20158;DHT22;10239;56.820;24.416;2023-09-19T03:28:33;17.10;99.90
20158;DHT22;10239;56.820;24.416;2023-09-19T03:31:04;17.20;99.90
20158;DHT22;10239;56.820;24.416;2023-09-19T03:33:35;17.20;99.90
20158;DHT22;10239;56.820;24.416;2023-09-19T03:36:04;17.10;99.90
20158;DHT22;10239;56.820;24.416;2023-09-19T03:38:33;16.90;99.90
20158;DHT22;10239;56.820;24.416;2023-09-19T03:41:03;16.90;99.90
20158;DHT22;10239;56.820;24.416;2023-09-19T03:43:34;16.90;99.90
20158;DHT22;10239;56.820;24.416;2023-09-19T03:46:02;16.90;99.90
20158;DHT22;10239;56.820;24.416;2023-09-19T03:48:37;16.90;99.90
20158;DHT22;10239;56.820;24.416;2023-09-19T03:51:04;17.00;99.90
20158;DHT22;10239;56.820;24.416;2023-09-19T03:53:32;17.10;99.90
20158;DHT22;10239;56.820;24.416;2023-09-19T03:56:00;17.00;99.90
20158;DHT22;10239;56.820;24.416;2023-09-19T03:58:31;17.20;99.90
20158;DHT22;10239;56.820;24.416;2023-09-19T04:00:59;17.10;99.90
20158;DHT22;10239;56.820;24.416;2023-09-19T04:03:28;17.20;99.90
20158;DHT22;10239;56.820;24.416;2023-09-19T04:06:03;17.40;99.90
20158;DHT22;10239;56.820;24.416;2023-09-19T04:08:31;17.30;99.90
20158;DHT22;10239;56.820;24.416;2023-09-19T04:10:58;17.30;99.90
20158;DHT22;10239;56.820;24.416;2023-09-19T04:13:26;17.40;99.90
20158;DHT22;10239;56.820;24.416;2023-09-19T04:15:54;17.30;99.90
20158;DHT22;10239;56.820;24.416;2023-09-19T04:18:22;17.30;99.90
20158;DHT22;10239;56.820;24.416;2023-09-19T04:20:53;17.20;99.90
20158;DHT22;10239;56.820;24.416;2023-09-19T04:23:21;17.40;99.90
20158;DHT22;10239;56.820;24.416;2023-09-19T04:25:48;17.50;99.90
20158;DHT22;10239;56.820;24.416;2023-09-19T04:28:17;17.40;99.90
20158;DHT22;10239;56.820;24.416;2023-09-19T04:30:45;17.50;99.90
20158;DHT22;10239;56.820;24.416;2023-09-19T04:33:12;17.60;99.90
20158;DHT22;10239;56.820;24.416;2023-09-19T04:35:41;17.80;99.90
20158;DHT22;10239;56.820;24.416;2023-09-19T04:38:12;17.80;99.90
20158;DHT22;10239;56.820;24.416;2023-09-19T04:40:39;17.80;99.90
20158;DHT22;10239;56.820;24.416;2023-09-19T04:43:07;17.80;99.90
20158;DHT22;10239;56.820;24.416;2023-09-19T04:45:35;17.70;99.90
20158;DHT22;10239;56.820;24.416;2023-09-19T04:48:02;17.90;99.90
20158;DHT22;10239;56.820;24.416;2023-09-19T04:50:30;17.80;99.90
20158;DHT22;10239;56.820;24.416;2023-09-19T04:52:57;17.90;99.90
20158;DHT22;10239;56.820;24.416;2023-09-19T04:55:25;18.00;99.90
20158;DHT22;10239;56.820;24.416;2023-09-19T04:57:53;18.20;99.90
20158;DHT22;10239;56.820;24.416;2023-09-19T05:00:22;18.20;99.90
20158;DHT22;10239;56.820;24.416;2023-09-19T05:02:56;18.40;99.90
20158;DHT22;10239;56.820;24.416;2023-09-19T05:05:24;18.40;99.90
20158;DHT22;10239;56.820;24.416;2023-09-19T05:07:53;18.60;99.90
20158;DHT22;10239;56.820;24.416;2023-09-19T05:10:22;18.90;99.90
20158;DHT22;10239;56.820;24.416;2023-09-19T05:12:53;19.00;99.90
20158;DHT22;10239;56.820;24.416;2023-09-19T05:15:21;18.80;99.90
20158;DHT22;10239;56.820;24.416;2023-09-19T05:17:52;18.60;99.90
20158;DHT22;10239;56.820;24.416;2023-09-19T05:20:26;18.60;99.90
20158;DHT22;10239;56.820;24.416;2023-09-19T05:23:01;18.70;99.90
20158;DHT22;10239;56.820;24.416;2023-09-19T05:25:31;18.60;99.90
20158;DHT22;10239;56.820;24.416;2023-09-19T05:27:59;18.50;99.90
20158;DHT22;10239;56.820;24.416;2023-09-19T05:30:32;18.60;99.90
20158;DHT22;10239;56.820;24.416;2023-09-19T05:33:00;18.40;99.90
20158;DHT22;10239;56.820;24.416;2023-09-19T05:35:27;18.50;99.90
20158;DHT22;10239;56.820;24.416;2023-09-19T05:37:55;18.40;99.90
20158;DHT22;10239;56.820;24.416;2023-09-19T05:40:24;18.60;99.90
20158;DHT22;10239;56.820;24.416;2023-09-19T05:42:52;18.70;99.90
20158;DHT22;10239;56.820;24.416;2023-09-19T05:45:20;18.60;99.90
20158;DHT22;10239;56.820;24.416;2023-09-19T05:47:51;18.80;99.90
20158;DHT22;10239;56.820;24.416;2023-09-19T05:50:23;18.70;99.90
20158;DHT22;10239;56.820;24.416;2023-09-19T05:52:53;18.90;99.90
20158;DHT22;10239;56.820;24.416;2023-09-19T05:55:20;19.40;99.90
20158;DHT22;10239;56.820;24.416;2023-09-19T05:57:52;20.10;99.90
20158;DHT22;10239;56.820;24.416;2023-09-19T06:00:22;20.20;99.90
20158;DHT22;10239;56.820;24.416;2023-09-19T06:02:57;20.20;99.90
20158;DHT22;10239;56.820;24.416;2023-09-19T06:05:26;20.30;99.90
20158;DHT22;10239;56.820;24.416;2023-09-19T06:07:55;20.80;99.90
20158;DHT22;10239;56.820;24.416;2023-09-19T06:10:22;21.30;99.90
20158;DHT22;10239;56.820;24.416;2023-09-19T06:12:50;21.40;99.90
20158;DHT22;10239;56.820;24.416;2023-09-19T06:15:18;21.00;99.90
20158;DHT22;10239;56.820;24.416;2023-09-19T06:17:53;20.90;99.90
20158;DHT22;10239;56.820;24.416;2023-09-19T06:20:27;21.00;99.90
20158;DHT22;10239;56.820;24.416;2023-09-19T06:22:55;21.20;99.90
20158;DHT22;10239;56.820;24.416;2023-09-19T06:25:23;20.90;99.90
20158;DHT22;10239;56.820;24.416;2023-09-19T06:27:52;21.10;99.90
20158;DHT22;10239;56.820;24.416;2023-09-19T06:30:24;21.20;99.90
20158;DHT22;10239;56.820;24.416;2023-09-19T06:32:57;21.30;99.90
20158;DHT22;10239;56.820;24.416;2023-09-19T06:35:25;21.70;99.90
20158;DHT22;10239;56.820;24.416;2023-09-19T06:37:54;22.00;99.90
20158;DHT22;10239;56.820;24.416;2023-09-19T06:40:22;22.20;99.90
20158;DHT22;10239;56.820;24.416;2023-09-19T06:42:53;23.00;99.90
20158;DHT22;10239;56.820;24.416;2023-09-19T06:45:21;23.30;99.90
20158;DHT22;10239;56.820;24.416;2023-09-19T06:47:50;24.20;99.90
20158;DHT22;10239;56.820;24.416;2023-09-19T06:50:20;24.80;99.90
20158;DHT22;10239;56.820;24.416;2023-09-19T06:52:51;25.20;99.90
20158;DHT22;10239;56.820;24.416;2023-09-19T06:55:20;25.80;99.90
20158;DHT22;10239;56.820;24.416;2023-09-19T06:57:48;25.80;99.90
20158;DHT22;10239;56.820;24.416;2023-09-19T07:00:17;25.20;99.90
20158;DHT22;10239;56.820;24.416;2023-09-19T07:03:04;26.00;99.90
20158;DHT22;10239;56.820;24.416;2023-09-19T07:05:39;26.00;99.90
20158;DHT22;10239;56.820;24.416;2023-09-19T07:08:09;25.90;99.90
20158;DHT22;10239;56.820;24.416;2023-09-19T07:10:41;25.90;99.90
20158;DHT22;10239;56.820;24.416;2023-09-19T07:13:09;25.70;99.90
20158;DHT22;10239;56.820;24.416;2023-09-19T07:15:38;26.00;99.90
20158;DHT22;10239;56.820;24.416;2023-09-19T07:18:14;26.20;99.90
20158;DHT22;10239;56.820;24.416;2023-09-19T07:20:44;26.30;99.90
20158;DHT22;10239;56.820;24.416;2023-09-19T07:23:22;26.20;99.90
20158;DHT22;10239;56.820;24.416;2023-09-19T07:25:50;25.80;99.90
20158;DHT22;10239;56.820;24.416;2023-09-19T07:28:18;26.40;99.90
20158;DHT22;10239;56.820;24.416;2023-09-19T07:30:46;26.30;99.90
20158;DHT22;10239;56.820;24.416;2023-09-19T07:33:14;26.80;99.90
20158;DHT22;10239;56.820;24.416;2023-09-19T07:35:48;25.90;99.90
20158;DHT22;10239;56.820;24.416;2023-09-19T07:38:16;25.80;99.90
20158;DHT22;10239;56.820;24.416;2023-09-19T07:40:45;25.90;99.90
20158;DHT22;10239;56.820;24.416;2023-09-19T07:43:12;25.60;99.90
20158;DHT22;10239;56.820;24.416;2023-09-19T07:45:41;25.30;99.90
20158;DHT22;10239;56.820;24.416;2023-09-19T07:48:08;25.40;99.90
20158;DHT22;10239;56.820;24.416;2023-09-19T07:50:42;26.60;99.90
20158;DHT22;10239;56.820;24.416;2023-09-19T07:53:11;27.00;99.90
20158;DHT22;10239;56.820;24.416;2023-09-19T07:55:41;27.60;99.90
20158;DHT22;10239;56.820;24.416;2023-09-19T07:58:08;27.60;99.90
20158;DHT22;10239;56.820;24.416;2023-09-19T08:00:36;27.50;99.90
20158;DHT22;10239;56.820;24.416;2023-09-19T08:03:03;26.20;99.90
20158;DHT22;10239;56.820;24.416;2023-09-19T08:05:44;26.20;99.90
20158;DHT22;10239;56.820;24.416;2023-09-19T08:08:12;26.50;99.90
20158;DHT22;10239;56.820;24.416;2023-09-19T08:10:42;26.30;99.90
20158;DHT22;10239;56.820;24.416;2023-09-19T08:13:13;26.80;99.90
20158;DHT22;10239;56.820;24.416;2023-09-19T08:15:45;27.10;99.90
20158;DHT22;10239;56.820;24.416;2023-09-19T08:18:14;27.40;99.90
20158;DHT22;10239;56.820;24.416;2023-09-19T08:20:42;26.80;99.90
20158;DHT22;10239;56.820;24.416;2023-09-19T08:23:13;26.70;99.90
20158;DHT22;10239;56.820;24.416;2023-09-19T08:25:40;26.60;99.90
20158;DHT22;10239;56.820;24.416;2023-09-19T08:28:08;26.80;99.90
20158;DHT22;10239;56.820;24.416;2023-09-19T08:30:39;27.10;99.90
20158;DHT22;10239;56.820;24.416;2023-09-19T08:33:07;27.10;99.90
20158;DHT22;10239;56.820;24.416;2023-09-19T08:35:35;26.80;99.90
20158;DHT22;10239;56.820;24.416;2023-09-19T08:38:03;27.10;99.90
20158;DHT22;10239;56.820;24.416;2023-09-19T08:40:32;26.80;99.90
20158;DHT22;10239;56.820;24.416;2023-09-19T08:43:00;27.10;99.90
20158;DHT22;10239;56.820;24.416;2023-09-19T08:45:28;27.70;99.90
20158;DHT22;10239;56.820;24.416;2023-09-19T08:48:22;28.20;99.90
20158;DHT22;10239;56.820;24.416;2023-09-19T08:50:57;29.10;99.90
20158;DHT22;10239;56.820;24.416;2023-09-19T08:53:45;28.00;99.90
20158;DHT22;10239;56.820;24.416;2023-09-19T08:56:18;28.30;99.90
20158;DHT22;10239;56.820;24.416;2023-09-19T08:58:53;26.60;99.90
20158;DHT22;10239;56.820;24.416;2023-09-19T09:01:22;25.50;99.90
20158;DHT22;10239;56.820;24.416;2023-09-19T09:03:56;25.30;99.90
20158;DHT22;10239;56.820;24.416;2023-09-19T09:06:25;25.30;99.90
20158;DHT22;10239;56.820;24.416;2023-09-19T09:08:53;25.50;99.90
20158;DHT22;10239;56.820;24.416;2023-09-19T09:11:21;25.20;99.90
20158;DHT22;10239;56.820;24.416;2023-09-19T09:13:52;25.40;99.90
20158;DHT22;10239;56.820;24.416;2023-09-19T09:16:19;25.90;99.90
20158;DHT22;10239;56.820;24.416;2023-09-19T09:18:47;26.40;99.90
20158;DHT22;10239;56.820;24.416;2023-09-19T09:21:25;27.30;99.90
20158;DHT22;10239;56.820;24.416;2023-09-19T09:23:53;27.00;99.90
20158;DHT22;10239;56.820;24.416;2023-09-19T09:26:54;26.80;99.90
20158;DHT22;10239;56.820;24.416;2023-09-19T09:29:41;26.50;99.90
20158;DHT22;10239;56.820;24.416;2023-09-19T09:32:26;26.20;99.90
20158;DHT22;10239;56.820;24.416;2023-09-19T09:34:57;25.90;99.90
20158;DHT22;10239;56.820;24.416;2023-09-19T09:37:28;25.90;99.90
20158;DHT22;10239;56.820;24.416;2023-09-19T09:40:02;25.70;99.90
20158;DHT22;10239;56.820;24.416;2023-09-19T09:42:42;25.80;99.90
20158;DHT22;10239;56.820;24.416;2023-09-19T09:45:20;25.60;99.90
20158;DHT22;10239;56.820;24.416;2023-09-19T09:48:01;26.00;99.90
20158;DHT22;10239;56.820;24.416;2023-09-19T09:50:32;26.00;99.90
20158;DHT22;10239;56.820;24.416;2023-09-19T09:53:23;25.70;99.90
20158;DHT22;10239;56.820;24.416;2023-09-19T09:56:08;25.40;99.90
20158;DHT22;10239;56.820;24.416;2023-09-19T09:58:40;25.20;99.90
20158;DHT22;10239;56.820;24.416;2023-09-19T10:01:17;25.30;99.90
20158;DHT22;10239;56.820;24.416;2023-09-19T10:03:45;25.30;99.90
20158;DHT22;10239;56.820;24.416;2023-09-19T10:06:16;25.10;99.90
20158;DHT22;10239;56.820;24.416;2023-09-19T10:09:09;25.00;99.90
20158;DHT22;10239;56.820;24.416;2023-09-19T10:12:10;24.90;99.90
20158;DHT22;10239;56.820;24.416;2023-09-19T10:14:41;24.90;99.90
20158;DHT22;10239;56.820;24.416;2023-09-19T10:17:10;25.50;99.90
20158;DHT22;10239;56.820;24.416;2023-09-19T10:19:54;25.70;99.90
20158;DHT22;10239;56.820;24.416;2023-09-19T10:22:26;26.00;99.90
20158;DHT22;10239;56.820;24.416;2023-09-19T10:24:55;26.30;99.90
20158;DHT22;10239;56.820;24.416;2023-09-19T10:27:29;26.60;99.90
20158;DHT22;10239;56.820;24.416;2023-09-19T10:30:08;26.70;99.90
20158;DHT22;10239;56.820;24.416;2023-09-19T10:32:40;26.40;99.90
20158;DHT22;10239;56.820;24.416;2023-09-19T10:35:11;25.80;99.90
20158;DHT22;10239;56.820;24.416;2023-09-19T10:37:41;25.60;99.90
20158;DHT22;10239;56.820;24.416;2023-09-19T10:40:12;25.70;99.90
20158;DHT22;10239;56.820;24.416;2023-09-19T10:42:46;26.10;99.90
20158;DHT22;10239;56.820;24.416;2023-09-19T10:45:17;26.40;99.90
20158;DHT22;10239;56.820;24.416;2023-09-19T10:47:44;26.80;99.90
20158;DHT22;10239;56.820;24.416;2023-09-19T10:50:20;27.10;99.90
20158;DHT22;10239;56.820;24.416;2023-09-19T10:52:53;27.00;99.90
20158;DHT22;10239;56.820;24.416;2023-09-19T10:55:27;26.90;99.90
20158;DHT22;10239;56.820;24.416;2023-09-19T10:57:56;27.20;99.90
20158;DHT22;10239;56.820;24.416;2023-09-19T11:00:25;27.10;99.90
20158;DHT22;10239;56.820;24.416;2023-09-19T11:05:42;26.80;99.90
20158;DHT22;10239;56.820;24.416;2023-09-19T11:08:11;26.70;99.90
20158;DHT22;10239;56.820;24.416;2023-09-19T11:10:47;26.70;99.90
20158;DHT22;10239;56.820;24.416;2023-09-19T11:13:31;27.00;99.90
20158;DHT22;10239;56.820;24.416;2023-09-19T11:27:10;25.70;99.90
20158;DHT22;10239;56.820;24.416;2023-09-19T11:29:41;25.70;99.90
20158;DHT22;10239;56.820;24.416;2023-09-19T11:32:09;25.70;99.90
20158;DHT22;10239;56.820;24.416;2023-09-19T11:40:07;26.20;99.90
20158;DHT22;10239;56.820;24.416;2023-09-19T11:42:45;26.60;99.90
20158;DHT22;10239;56.820;24.416;2023-09-19T11:48:18;26.50;99.90
20158;DHT22;10239;56.820;24.416;2023-09-19T11:50:48;26.30;99.90
20158;DHT22;10239;56.820;24.416;2023-09-19T11:53:16;26.00;99.90
20158;DHT22;10239;56.820;24.416;2023-09-19T11:55:45;25.80;99.90
20158;DHT22;10239;56.820;24.416;2023-09-19T11:58:15;25.70;99.90
20158;DHT22;10239;56.820;24.416;2023-09-19T12:00:45;25.60;99.90
20158;DHT22;10239;56.820;24.416;2023-09-19T12:03:13;25.90;99.90
20158;DHT22;10239;56.820;24.416;2023-09-19T12:05:46;26.00;99.90
20158;DHT22;10239;56.820;24.416;2023-09-19T12:08:15;25.70;99.90
20158;DHT22;10239;56.820;24.416;2023-09-19T12:10:48;25.60;99.90
20158;DHT22;10239;56.820;24.416;2023-09-19T12:13:17;25.90;99.90
20158;DHT22;10239;56.820;24.416;2023-09-19T12:15:46;26.10;99.90
20158;DHT22;10239;56.820;24.416;2023-09-19T12:18:29;26.10;99.90
20158;DHT22;10239;56.820;24.416;2023-09-19T12:20:57;26.50;99.90
20158;DHT22;10239;56.820;24.416;2023-09-19T12:23:25;25.80;99.90
20158;DHT22;10239;56.820;24.416;2023-09-19T12:25:54;26.00;99.90
20158;DHT22;10239;56.820;24.416;2023-09-19T12:28:27;26.00;99.90
20158;DHT22;10239;56.820;24.416;2023-09-19T12:31:07;25.90;99.90
20158;DHT22;10239;56.820;24.416;2023-09-19T12:33:35;25.80;99.90
20158;DHT22;10239;56.820;24.416;2023-09-19T12:36:36;25.80;99.90
20158;DHT22;10239;56.820;24.416;2023-09-19T12:39:07;25.60;99.90
20158;DHT22;10239;56.820;24.416;2023-09-19T12:41:37;25.70;99.90
20158;DHT22;10239;56.820;24.416;2023-09-19T12:44:05;25.50;99.90
20158;DHT22;10239;56.820;24.416;2023-09-19T12:46:37;25.60;99.90
20158;DHT22;10239;56.820;24.416;2023-09-19T12:49:21;25.40;99.90
20158;DHT22;10239;56.820;24.416;2023-09-19T12:51:49;25.20;99.90
20158;DHT22;10239;56.820;24.416;2023-09-19T12:54:22;24.80;99.90
20158;DHT22;10239;56.820;24.416;2023-09-19T12:56:50;24.80;99.90
20158;DHT22;10239;56.820;24.416;2023-09-19T12:59:30;24.80;99.90
20158;DHT22;10239;56.820;24.416;2023-09-19T13:02:06;24.50;99.90
20158;DHT22;10239;56.820;24.416;2023-09-19T13:04:35;24.40;99.90
20158;DHT22;10239;56.820;24.416;2023-09-19T13:07:07;24.30;99.90
20158;DHT22;10239;56.820;24.416;2023-09-19T13:09:36;24.50;99.90
20158;DHT22;10239;56.820;24.416;2023-09-19T13:12:35;24.50;99.90
20158;DHT22;10239;56.820;24.416;2023-09-19T13:15:11;24.30;99.90
20158;DHT22;10239;56.820;24.416;2023-09-19T13:17:47;24.30;99.90
20158;DHT22;10239;56.820;24.416;2023-09-19T13:20:23;24.20;99.90
20158;DHT22;10239;56.820;24.416;2023-09-19T13:22:59;24.20;99.90
20158;DHT22;10239;56.820;24.416;2023-09-19T13:25:28;24.10;99.90
20158;DHT22;10239;56.820;24.416;2023-09-19T13:27:58;24.10;99.90
20158;DHT22;10239;56.820;24.416;2023-09-19T13:30:29;24.10;99.90
20158;DHT22;10239;56.820;24.416;2023-09-19T13:33:11;24.10;99.90
20158;DHT22;10239;56.820;24.416;2023-09-19T13:35:40;24.10;99.90
20158;DHT22;10239;56.820;24.416;2023-09-19T13:38:08;24.00;99.90
20158;DHT22;10239;56.820;24.416;2023-09-19T13:40:40;23.70;99.90
20158;DHT22;10239;56.820;24.416;2023-09-19T13:43:09;23.50;99.90
20158;DHT22;10239;56.820;24.416;2023-09-19T13:45:39;23.40;99.90
20158;DHT22;10239;56.820;24.416;2023-09-19T13:48:09;23.30;99.90
20158;DHT22;10239;56.820;24.416;2023-09-19T13:50:38;23.20;99.90
20158;DHT22;10239;56.820;24.416;2023-09-19T13:53:10;23.10;99.90
20158;DHT22;10239;56.820;24.416;2023-09-19T13:55:37;22.80;99.90
20158;DHT22;10239;56.820;24.416;2023-09-19T13:58:05;22.80;99.90
20158;DHT22;10239;56.820;24.416;2023-09-19T14:00:34;22.70;99.90
20158;DHT22;10239;56.820;24.416;2023-09-19T14:03:01;22.70;99.90
20158;DHT22;10239;56.820;24.416;2023-09-19T14:05:29;22.70;99.90
20158;DHT22;10239;56.820;24.416;2023-09-19T14:07:58;22.60;99.90
20158;DHT22;10239;56.820;24.416;2023-09-19T14:10:31;22.50;99.90
20158;DHT22;10239;56.820;24.416;2023-09-19T14:12:58;22.50;99.90
20158;DHT22;10239;56.820;24.416;2023-09-19T14:15:27;22.40;99.90
20158;DHT22;10239;56.820;24.416;2023-09-19T14:18:02;22.30;99.90
20158;DHT22;10239;56.820;24.416;2023-09-19T14:20:30;22.40;99.90
20158;DHT22;10239;56.820;24.416;2023-09-19T14:22:59;22.40;99.90
20158;DHT22;10239;56.820;24.416;2023-09-19T14:25:27;22.40;99.90
20158;DHT22;10239;56.820;24.416;2023-09-19T14:27:57;22.40;99.90
20158;DHT22;10239;56.820;24.416;2023-09-19T14:30:25;22.30;99.90
20158;DHT22;10239;56.820;24.416;2023-09-19T14:32:53;22.30;99.90
20158;DHT22;10239;56.820;24.416;2023-09-19T14:35:21;22.30;99.90
20158;DHT22;10239;56.820;24.416;2023-09-19T14:37:50;22.30;99.90
20158;DHT22;10239;56.820;24.416;2023-09-19T14:40:18;22.20;99.90
20158;DHT22;10239;56.820;24.416;2023-09-19T14:42:46;22.20;99.90
20158;DHT22;10239;56.820;24.416;2023-09-19T14:45:17;22.20;99.90
20158;DHT22;10239;56.820;24.416;2023-09-19T14:47:50;22.20;99.90
20158;DHT22;10239;56.820;24.416;2023-09-19T14:50:20;22.10;99.90
20158;DHT22;10239;56.820;24.416;2023-09-19T14:52:47;22.10;99.90
20158;DHT22;10239;56.820;24.416;2023-09-19T14:55:16;22.10;99.90
20158;DHT22;10239;56.820;24.416;2023-09-19T14:57:44;22.00;99.90
20158;DHT22;10239;56.820;24.416;2023-09-19T15:00:16;22.00;99.90
20158;DHT22;10239;56.820;24.416;2023-09-19T15:02:44;22.00;99.90
20158;DHT22;10239;56.820;24.416;2023-09-19T15:05:13;22.00;99.90
20158;DHT22;10239;56.820;24.416;2023-09-19T15:07:46;21.90;99.90
20158;DHT22;10239;56.820;24.416;2023-09-19T15:10:14;21.90;99.90
20158;DHT22;10239;56.820;24.416;2023-09-19T15:12:41;21.90;99.90
20158;DHT22;10239;56.820;24.416;2023-09-19T15:15:09;22.00;99.90
20158;DHT22;10239;56.820;24.416;2023-09-19T15:17:37;21.90;99.90
20158;DHT22;10239;56.820;24.416;2023-09-19T15:20:06;21.80;99.90
20158;DHT22;10239;56.820;24.416;2023-09-19T15:22:35;21.70;99.90
20158;DHT22;10239;56.820;24.416;2023-09-19T15:25:03;21.70;99.90
20158;DHT22;10239;56.820;24.416;2023-09-19T15:27:31;21.60;99.90
20158;DHT22;10239;56.820;24.416;2023-09-19T15:30:00;21.70;99.90
20158;DHT22;10239;56.820;24.416;2023-09-19T15:32:30;21.60;99.90
20158;DHT22;10239;56.820;24.416;2023-09-19T15:34:59;21.50;99.90
20158;DHT22;10239;56.820;24.416;2023-09-19T15:37:26;21.40;99.90
20158;DHT22;10239;56.820;24.416;2023-09-19T15:39:54;21.40;99.90
20158;DHT22;10239;56.820;24.416;2023-09-19T15:42:21;21.30;99.90
20158;DHT22;10239;56.820;24.416;2023-09-19T15:44:49;21.20;99.90
20158;DHT22;10239;56.820;24.416;2023-09-19T15:47:18;21.30;99.90
20158;DHT22;10239;56.820;24.416;2023-09-19T15:49:47;21.10;99.90
20158;DHT22;10239;56.820;24.416;2023-09-19T15:52:17;21.00;99.90
20158;DHT22;10239;56.820;24.416;2023-09-19T15:54:45;20.90;99.90
20158;DHT22;10239;56.820;24.416;2023-09-19T15:57:12;21.10;99.90
20158;DHT22;10239;56.820;24.416;2023-09-19T15:59:41;21.10;99.90
20158;DHT22;10239;56.820;24.416;2023-09-19T16:02:08;21.20;99.90
20158;DHT22;10239;56.820;24.416;2023-09-19T16:04:36;21.20;99.90
20158;DHT22;10239;56.820;24.416;2023-09-19T16:07:05;21.30;99.90
20158;DHT22;10239;56.820;24.416;2023-09-19T16:09:34;21.20;99.90
20158;DHT22;10239;56.820;24.416;2023-09-19T16:12:02;21.10;99.90
20158;DHT22;10239;56.820;24.416;2023-09-19T16:14:30;21.10;99.90
20158;DHT22;10239;56.820;24.416;2023-09-19T16:16:58;21.10;99.90